createdAt,value
2018-08-20T00:00:35.124Z,8.10
2018-08-20T00:03:03.525Z,8.60
2018-08-20T00:05:32.596Z,11.17
2018-08-20T00:08:01.012Z,7.87
2018-08-20T00:10:29.432Z,9.17
2018-08-20T00:12:57.859Z,8.27
2018-08-20T00:15:26.271Z,9.50
2018-08-20T00:17:54.652Z,8.53
2018-08-20T00:20:23.062Z,9.47
2018-08-20T00:22:51.471Z,9.00
2018-08-20T00:25:19.927Z,9.40
2018-08-20T00:27:48.511Z,11.10
2018-08-20T00:30:18.880Z,10.17
2018-08-20T00:32:48.111Z,8.37
2018-08-20T00:35:17.872Z,11.13
2018-08-20T00:37:52.722Z,10.37
2018-08-20T00:40:26.339Z,8.77
2018-08-20T00:42:54.835Z,10.10
2018-08-20T00:45:23.227Z,10.97
2018-08-20T00:47:51.617Z,9.77
2018-08-20T00:50:20.019Z,9.67
2018-08-20T00:52:48.399Z,10.17
2018-08-20T00:55:16.788Z,8.63
2018-08-20T00:57:45.207Z,8.90
2018-08-20T01:00:13.608Z,8.83
2018-08-20T01:02:41.987Z,10.50
2018-08-20T01:05:10.387Z,8.83
2018-08-20T01:07:38.787Z,10.83
2018-08-20T01:10:07.434Z,10.13
2018-08-20T01:12:35.844Z,10.30
2018-08-20T01:15:04.283Z,14.00
2018-08-20T01:17:32.686Z,10.90
2018-08-20T01:20:01.087Z,13.20
2018-08-20T01:22:29.530Z,13.93
2018-08-20T01:24:57.924Z,12.70
2018-08-20T01:27:28.343Z,11.77
2018-08-20T01:29:56.781Z,9.90
2018-08-20T01:32:25.254Z,11.47
2018-08-20T01:34:53.685Z,12.00
2018-08-20T01:37:22.279Z,10.53
2018-08-20T01:39:50.851Z,12.23
2018-08-20T01:42:19.540Z,14.80
2018-08-20T01:44:48.347Z,12.07
2018-08-20T01:47:16.921Z,15.13
2018-08-20T01:49:45.295Z,13.23
2018-08-20T01:52:13.781Z,11.47
2018-08-20T01:54:42.174Z,10.97
2018-08-20T01:57:10.570Z,16.00
2018-08-20T01:59:39.052Z,14.23
2018-08-20T02:02:07.434Z,10.93
2018-08-20T02:04:35.865Z,10.73
2018-08-20T02:07:04.263Z,10.40
2018-08-20T02:09:32.718Z,13.63
2018-08-20T02:12:01.131Z,14.07
2018-08-20T02:14:29.813Z,12.07
2018-08-20T02:16:58.496Z,13.23
2018-08-20T02:19:26.983Z,12.37
2018-08-20T02:21:55.387Z,12.63
2018-08-20T02:24:23.799Z,11.63
2018-08-20T02:26:52.222Z,14.83
2018-08-20T02:29:20.620Z,18.27
2018-08-20T02:31:49.015Z,11.67
2018-08-20T02:34:17.644Z,12.67
2018-08-20T02:36:46.362Z,13.90
2018-08-20T02:39:14.920Z,12.17
2018-08-20T02:41:43.559Z,10.97
2018-08-20T02:44:12.846Z,12.53
2018-08-20T02:46:43.246Z,10.67
2018-08-20T02:49:11.989Z,13.07
2018-08-20T02:51:40.504Z,14.57
2018-08-20T02:54:09.238Z,9.97
2018-08-20T02:56:37.672Z,11.67
2018-08-20T02:59:06.107Z,11.83
2018-08-20T03:01:34.521Z,11.10
2018-08-20T03:04:02.962Z,16.97
2018-08-20T03:06:31.341Z,13.00
2018-08-20T03:08:59.754Z,12.53
2018-08-20T03:11:28.371Z,12.90
2018-08-20T03:13:56.903Z,10.57
2018-08-20T03:16:25.336Z,10.37
2018-08-20T03:18:53.710Z,11.77
2018-08-20T03:21:22.327Z,12.70
2018-08-20T03:23:50.799Z,10.60
2018-08-20T03:26:19.431Z,10.00
2018-08-20T03:28:48.145Z,11.00
2018-08-20T03:31:16.620Z,12.63
2018-08-20T03:33:45.064Z,9.90
2018-08-20T03:36:13.544Z,17.43
2018-08-20T03:38:42.127Z,11.23
2018-08-20T03:41:10.712Z,12.87
2018-08-20T03:43:39.145Z,12.57
2018-08-20T03:46:07.686Z,12.30
2018-08-20T03:48:36.317Z,11.07
2018-08-20T03:51:04.887Z,11.97
2018-08-20T03:53:33.278Z,10.77
2018-08-20T03:56:01.743Z,14.13
2018-08-20T03:58:30.383Z,14.30
2018-08-20T04:00:58.907Z,15.27
2018-08-20T04:03:28.631Z,11.37
2018-08-20T04:05:57.322Z,13.83
2018-08-20T04:08:25.934Z,13.90
2018-08-20T04:10:54.449Z,10.90
2018-08-20T04:13:22.851Z,11.33
2018-08-20T04:15:51.243Z,11.33
2018-08-20T04:18:19.658Z,13.03
2018-08-20T04:20:48.051Z,11.07
2018-08-20T04:23:16.442Z,10.50
2018-08-20T04:25:44.854Z,14.53
2018-08-20T04:28:13.408Z,13.07
2018-08-20T04:30:41.806Z,12.37
2018-08-20T04:33:10.519Z,11.20
2018-08-20T04:35:39.018Z,15.80
2018-08-20T04:38:07.406Z,14.00
2018-08-20T04:40:35.803Z,13.23
2018-08-20T04:43:04.209Z,13.13
2018-08-20T04:45:32.650Z,14.37
2018-08-20T04:48:01.172Z,12.17
2018-08-20T04:50:29.806Z,16.23
2018-08-20T04:52:58.035Z,10.77
2018-08-20T04:55:26.465Z,14.03
2018-08-20T04:57:54.855Z,11.00
2018-08-20T05:00:23.350Z,13.10
2018-08-20T05:02:51.766Z,12.27
2018-08-20T05:05:20.147Z,12.87
2018-08-20T05:07:48.538Z,13.10
2018-08-20T05:10:16.998Z,13.73
2018-08-20T05:12:45.604Z,15.03
2018-08-20T05:15:14.343Z,13.37
2018-08-20T05:17:46.111Z,12.47
2018-08-20T05:20:14.897Z,10.93
2018-08-20T05:22:43.252Z,18.47
2018-08-20T05:25:11.891Z,15.67
2018-08-20T05:27:40.382Z,20.43
2018-08-20T05:30:09.384Z,15.77
2018-08-20T05:32:38.211Z,19.33
2018-08-20T05:35:07.019Z,18.83
2018-08-20T05:37:35.745Z,15.70
2018-08-20T05:40:04.191Z,15.37
2018-08-20T05:42:32.811Z,18.33
2018-08-20T05:45:01.307Z,15.83
2018-08-20T05:47:29.734Z,19.67
2018-08-20T05:49:58.122Z,15.17
2018-08-20T05:52:26.782Z,13.97
2018-08-20T05:54:55.255Z,11.37
2018-08-20T05:57:23.688Z,16.47
2018-08-20T05:59:52.124Z,13.77
2018-08-20T06:02:20.503Z,11.97
2018-08-20T06:04:48.911Z,13.20
2018-08-20T06:07:17.311Z,16.23
2018-08-20T06:09:45.734Z,14.03
2018-08-20T06:12:14.238Z,13.47
2018-08-20T06:14:42.902Z,15.10
2018-08-20T06:17:11.691Z,14.50
2018-08-20T06:19:40.215Z,13.33
2018-08-20T06:22:08.622Z,12.23
2018-08-20T06:24:37.015Z,9.60
2018-08-20T06:27:05.877Z,8.93
2018-08-20T06:29:34.578Z,9.17
2018-08-20T06:32:03.085Z,7.83
2018-08-20T06:34:31.472Z,7.07
2018-08-20T06:37:00.071Z,9.03
2018-08-20T06:39:28.824Z,9.23
2018-08-20T06:41:57.345Z,8.17
2018-08-20T06:44:25.804Z,8.77
2018-08-20T06:46:54.248Z,9.63
2018-08-20T06:49:22.859Z,8.00
2018-08-20T06:51:51.636Z,10.13
2018-08-20T06:54:20.367Z,8.07
2018-08-20T06:56:48.844Z,7.17
2018-08-20T06:59:17.269Z,6.63
2018-08-20T07:01:45.733Z,7.77
2018-08-20T07:04:14.154Z,7.03
2018-08-20T07:06:42.760Z,5.20
2018-08-20T07:09:11.266Z,6.50
2018-08-20T07:12:04.075Z,5.30
2018-08-20T07:14:32.515Z,4.73
2018-08-20T07:17:00.971Z,5.23
2018-08-20T07:19:29.367Z,4.33
2018-08-20T07:21:57.790Z,6.03
2018-08-20T07:24:26.358Z,6.13
2018-08-20T07:26:55.074Z,3.33
2018-08-20T07:29:33.726Z,6.20
2018-08-20T07:32:09.387Z,4.23
2018-08-20T07:34:39.966Z,3.77
2018-08-20T07:37:10.802Z,4.73
2018-08-20T07:39:40.250Z,4.90
2018-08-20T07:42:09.207Z,3.80
2018-08-20T07:44:38.483Z,4.47
2018-08-20T07:47:07.193Z,5.80
2018-08-20T07:49:35.643Z,4.07
2018-08-20T07:52:04.878Z,5.17
2018-08-20T07:54:35.070Z,3.47
2018-08-20T07:57:04.140Z,6.87
2018-08-20T07:59:32.568Z,8.17
2018-08-20T08:02:01.160Z,7.53
2018-08-20T08:04:29.927Z,4.87
2018-08-20T08:06:58.856Z,3.63
2018-08-20T08:09:27.420Z,4.37
2018-08-20T08:11:56.056Z,4.80
2018-08-20T08:14:24.468Z,3.10
2018-08-20T08:16:53.129Z,4.03
2018-08-20T08:19:21.627Z,6.90
2018-08-20T08:21:50.055Z,6.20
2018-08-20T08:24:18.499Z,3.97
2018-08-20T08:26:46.940Z,4.47
2018-08-20T08:29:15.366Z,4.57
2018-08-20T08:31:43.755Z,5.43
2018-08-20T08:34:12.216Z,3.40
2018-08-20T08:36:40.659Z,4.93
2018-08-20T08:39:09.897Z,2.93
2018-08-20T08:41:38.825Z,3.33
2018-08-20T08:44:07.396Z,6.03
2018-08-20T08:46:35.788Z,2.97
2018-08-20T08:49:04.252Z,2.57
2018-08-20T08:51:32.882Z,5.03
2018-08-20T08:54:01.360Z,4.37
2018-08-20T08:56:30.045Z,6.33
2018-08-20T08:58:58.553Z,3.17
2018-08-20T09:01:27.027Z,2.37
2018-08-20T09:03:55.452Z,2.90
2018-08-20T09:06:23.868Z,2.30
2018-08-20T09:08:52.524Z,2.00
2018-08-20T09:11:21.494Z,3.20
2018-08-20T09:13:50.339Z,2.60
2018-08-20T09:16:18.970Z,4.43
2018-08-20T09:18:47.531Z,1.85
2018-08-20T09:21:16.164Z,1.40
2018-08-20T09:23:44.654Z,1.50
2018-08-20T09:26:13.063Z,5.53
2018-08-20T09:28:41.467Z,4.17
2018-08-20T09:31:09.840Z,3.83
2018-08-20T09:33:38.239Z,2.80
2018-08-20T09:36:06.639Z,3.50
2018-08-20T09:38:35.037Z,4.30
2018-08-20T09:41:03.434Z,1.40
2018-08-20T09:43:31.863Z,1.83
2018-08-20T09:46:00.249Z,2.10
2018-08-20T09:48:28.877Z,2.10
2018-08-20T09:50:57.388Z,1.63
2018-08-20T09:53:26.076Z,1.87
2018-08-20T09:55:54.515Z,2.50
2018-08-20T09:58:22.932Z,2.40
2018-08-20T10:00:54.823Z,2.13
2018-08-20T10:03:23.694Z,1.30
2018-08-20T10:05:52.379Z,1.50
2018-08-20T10:08:20.891Z,2.03
2018-08-20T10:10:49.392Z,1.93
2018-08-20T10:13:17.996Z,5.13
2018-08-20T10:15:46.520Z,1.83
2018-08-20T10:18:14.914Z,1.17
2018-08-20T10:20:43.299Z,2.15
2018-08-20T10:23:11.687Z,3.72
2018-08-20T10:25:40.408Z,1.05
2018-08-20T10:28:08.909Z,1.20
2018-08-20T10:30:37.374Z,1.00
2018-08-20T10:33:05.790Z,1.57
2018-08-20T10:35:34.211Z,2.27
2018-08-20T10:38:02.765Z,1.30
2018-08-20T10:40:31.232Z,1.10
2018-08-20T10:42:59.662Z,3.42
2018-08-20T10:45:33.864Z,4.27
2018-08-20T10:48:02.280Z,2.07
2018-08-20T10:50:30.910Z,1.53
2018-08-20T10:52:59.405Z,2.40
2018-08-20T10:55:27.863Z,1.50
2018-08-20T10:57:56.288Z,1.40
2018-08-20T11:00:24.744Z,1.13
2018-08-20T11:02:53.370Z,1.13
2018-08-20T11:05:26.046Z,1.12
2018-08-20T11:07:55.515Z,1.07
2018-08-20T11:10:28.943Z,1.52
2018-08-20T11:12:57.388Z,1.57
2018-08-20T11:15:25.817Z,1.20
2018-08-20T11:17:54.270Z,1.82
2018-08-20T11:20:27.731Z,1.20
2018-08-20T11:22:56.369Z,1.30
2018-08-20T11:25:24.825Z,1.50
2018-08-20T11:27:53.227Z,3.52
2018-08-20T11:30:22.161Z,1.20
2018-08-20T11:32:50.611Z,1.65
2018-08-20T11:35:19.276Z,1.17
2018-08-20T11:37:48.089Z,1.32
2018-08-20T11:40:16.643Z,1.20
2018-08-20T11:42:45.445Z,2.37
2018-08-20T11:45:14.626Z,1.62
2018-08-20T11:47:43.478Z,2.27
2018-08-20T11:50:12.262Z,4.67
2018-08-20T11:52:40.950Z,1.90
2018-08-20T11:55:09.635Z,2.55
2018-08-20T11:57:38.040Z,2.42
2018-08-20T12:00:11.833Z,1.87
2018-08-20T12:02:40.553Z,1.22
2018-08-20T12:05:09.804Z,1.90
2018-08-20T12:07:38.250Z,1.82
2018-08-20T12:10:07.660Z,1.87
2018-08-20T12:12:36.304Z,4.92
2018-08-20T12:15:04.900Z,2.55
2018-08-20T12:17:33.539Z,2.87
2018-08-20T12:20:02.122Z,2.77
2018-08-20T12:22:30.552Z,2.83
2018-08-20T12:24:59.169Z,1.98
2018-08-20T12:27:27.904Z,2.17
2018-08-20T12:30:12.428Z,2.67
2018-08-20T12:32:41.291Z,3.27
2018-08-20T12:35:10.366Z,3.47
2018-08-20T12:37:39.868Z,3.90
2018-08-20T12:40:08.593Z,3.67
2018-08-20T12:42:37.416Z,3.00
2018-08-20T12:45:06.130Z,3.50
2018-08-20T12:47:34.809Z,4.55
2018-08-20T12:50:03.625Z,3.10
2018-08-20T12:52:32.158Z,1.77
2018-08-20T12:55:00.600Z,3.55
2018-08-20T12:57:29.023Z,3.37
2018-08-20T12:59:58.557Z,3.95
2018-08-20T13:02:27.734Z,5.62
2018-08-20T13:04:56.260Z,3.50
2018-08-20T13:07:24.707Z,4.12
2018-08-20T13:09:53.129Z,2.02
2018-08-20T13:12:21.618Z,2.95
2018-08-20T13:14:50.341Z,2.47
2018-08-20T13:17:19.256Z,6.35
2018-08-20T13:19:47.796Z,4.58
2018-08-20T13:22:16.511Z,3.50
2018-08-20T13:24:45.114Z,2.60
2018-08-20T13:27:13.601Z,3.45
2018-08-20T13:29:42.052Z,2.98
2018-08-20T13:32:10.750Z,3.77
2018-08-20T13:34:39.793Z,4.85
2018-08-20T13:37:09.048Z,4.10
2018-08-20T13:42:16.437Z,4.20
2018-08-20T13:44:45.757Z,2.55
2018-08-20T13:47:14.671Z,2.40
2018-08-20T13:49:44.637Z,4.67
2018-08-20T13:52:18.960Z,3.22
2018-08-20T13:54:48.213Z,5.08
2018-08-20T13:57:16.604Z,5.60
2018-08-20T13:59:45.237Z,6.22
2018-08-20T14:02:14.058Z,2.72
2018-08-20T14:04:42.588Z,4.42
2018-08-20T14:07:11.012Z,4.37
2018-08-20T14:09:39.448Z,3.27
2018-08-20T14:12:07.857Z,4.03
2018-08-20T14:14:36.486Z,4.65
2018-08-20T14:17:05.263Z,5.15
2018-08-20T14:19:33.776Z,4.85
2018-08-20T14:22:02.228Z,2.33
2018-08-20T14:24:30.896Z,3.22
2018-08-20T14:26:59.412Z,1.42
2018-08-20T14:29:27.821Z,1.92
2018-08-20T14:31:56.275Z,3.55
2018-08-20T14:34:24.690Z,2.12
2018-08-20T14:36:53.368Z,2.62
2018-08-20T14:39:21.824Z,1.67
2018-08-20T14:41:50.255Z,1.50
2018-08-20T14:44:18.901Z,3.20
2018-08-20T14:46:47.432Z,4.10
2018-08-20T14:49:15.852Z,1.30
2018-08-20T14:51:44.486Z,2.43
2018-08-20T14:54:13.241Z,1.37
2018-08-20T14:56:42.005Z,5.00
2018-08-20T14:59:10.581Z,6.80
2018-08-20T15:01:39.003Z,3.42
2018-08-20T15:04:07.416Z,1.83
2018-08-20T15:06:41.892Z,5.20
2018-08-20T15:09:10.442Z,2.20
2018-08-20T15:11:38.968Z,3.22
2018-08-20T15:14:07.490Z,3.70
2018-08-20T15:16:36.142Z,2.63
2018-08-20T15:19:04.896Z,3.47
2018-08-20T15:21:38.524Z,4.20
2018-08-20T15:24:06.930Z,2.83
2018-08-20T15:26:35.347Z,5.70
2018-08-20T15:29:03.767Z,2.80
2018-08-20T15:31:32.445Z,5.30
2018-08-20T15:34:01.199Z,2.97
2018-08-20T15:36:29.960Z,5.40
2018-08-20T15:38:58.992Z,5.87
2018-08-20T15:41:27.560Z,3.17
2018-08-20T15:43:55.984Z,5.10
2018-08-20T15:46:24.429Z,4.27
2018-08-20T15:48:52.864Z,4.87
2018-08-20T15:51:21.467Z,4.20
2018-08-20T15:53:49.919Z,5.77
2018-08-20T15:56:18.303Z,4.20
2018-08-20T15:58:46.747Z,4.40
2018-08-20T16:01:15.448Z,3.90
2018-08-20T16:03:43.939Z,6.20
2018-08-20T16:06:12.684Z,6.63
2018-08-20T16:08:41.183Z,3.87
2018-08-20T16:11:09.588Z,4.60
2018-08-20T16:13:37.992Z,3.73
2018-08-20T16:16:06.808Z,6.30
2018-08-20T16:18:35.324Z,2.50
2018-08-20T16:21:03.820Z,5.13
2018-08-20T16:23:32.460Z,4.67
2018-08-20T16:26:01.215Z,4.83
2018-08-20T16:28:29.572Z,4.17
2018-08-20T16:30:58.015Z,3.90
2018-08-20T16:33:26.460Z,4.97
2018-08-20T16:35:56.523Z,5.20
2018-08-20T16:38:25.724Z,5.60
2018-08-20T16:40:54.207Z,4.63
2018-08-20T16:43:22.684Z,4.07
2018-08-20T16:45:51.160Z,5.03
2018-08-20T16:48:19.616Z,3.73
2018-08-20T16:50:49.333Z,7.03
2018-08-20T16:53:17.887Z,4.93
2018-08-20T16:55:46.527Z,5.03
2018-08-20T16:58:15.020Z,3.50
2018-08-20T17:00:43.420Z,3.03
2018-08-20T17:03:12.644Z,5.07
2018-08-20T17:05:48.472Z,4.80
2018-08-20T17:08:23.190Z,4.83
2018-08-20T17:10:51.847Z,3.87
2018-08-20T17:13:20.226Z,3.20
2018-08-20T17:15:48.615Z,6.10
2018-08-20T17:18:17.043Z,3.60
2018-08-20T17:20:45.428Z,4.90
2018-08-20T17:23:18.360Z,4.43
2018-08-20T17:25:47.031Z,4.57
2018-08-20T17:28:18.387Z,5.20
2018-08-20T17:30:46.807Z,4.73
2018-08-20T17:33:15.190Z,8.30
2018-08-20T17:35:43.742Z,6.80
2018-08-20T17:38:12.136Z,6.03
2018-08-20T17:40:40.518Z,5.90
2018-08-20T17:43:09.741Z,8.27
2018-08-20T17:45:38.908Z,5.37
2018-08-20T17:48:15.235Z,6.30
2018-08-20T17:50:44.870Z,6.03
2018-08-20T17:53:13.633Z,9.97
2018-08-20T17:55:42.588Z,5.40
2018-08-20T17:58:11.804Z,5.33
2018-08-20T18:00:47.359Z,10.10
2018-08-20T18:03:23.036Z,5.27
2018-08-20T18:06:06.610Z,6.17
2018-08-20T18:08:36.193Z,4.37
2018-08-20T18:11:05.819Z,6.50
2018-08-20T18:13:43.535Z,8.87
2018-08-20T18:16:14.615Z,8.60
2018-08-20T18:18:44.972Z,4.60
2018-08-20T18:21:13.436Z,4.23
2018-08-20T18:23:41.876Z,6.07
2018-08-20T18:26:10.322Z,4.80
2018-08-20T18:28:44.471Z,5.20
2018-08-20T18:31:20.012Z,4.40
2018-08-20T18:33:48.607Z,7.73
2018-08-20T18:36:19.288Z,5.70
2018-08-20T18:38:59.555Z,8.47
2018-08-20T18:42:02.934Z,9.73
2018-08-20T18:44:31.730Z,7.27
2018-08-20T18:47:01.340Z,6.53
2018-08-20T18:49:29.854Z,5.07
2018-08-20T18:52:09.286Z,8.13
2018-08-20T18:54:42.311Z,8.43
2018-08-20T18:57:15.055Z,8.40
2018-08-20T18:59:43.577Z,5.63
2018-08-20T19:02:20.726Z,9.63
2018-08-20T19:04:49.483Z,6.23
2018-08-20T19:07:18.071Z,5.53
2018-08-20T19:09:47.864Z,5.83
2018-08-20T19:12:16.727Z,8.33
2018-08-20T19:14:45.380Z,4.70
2018-08-20T19:17:19.159Z,8.90
2018-08-20T19:19:48.747Z,6.67
2018-08-20T19:22:22.602Z,8.67
2018-08-20T19:24:51.038Z,4.97
2018-08-20T19:27:19.563Z,8.13
2018-08-20T19:29:48.195Z,11.77
2018-08-20T19:32:16.693Z,9.10
2018-08-20T19:34:45.106Z,6.43
2018-08-20T19:37:13.539Z,6.47
2018-08-20T19:39:41.942Z,7.87
2018-08-20T19:42:13.789Z,7.50
2018-08-20T19:44:42.202Z,5.60
2018-08-20T19:47:10.664Z,7.37
2018-08-20T19:49:39.140Z,8.33
2018-08-20T19:52:07.529Z,6.13
2018-08-20T19:54:36.023Z,7.87
2018-08-20T19:57:04.520Z,5.10
2018-08-20T19:59:36.783Z,6.87
2018-08-20T20:02:06.074Z,5.27
2018-08-20T20:04:34.449Z,5.10
2018-08-20T20:07:02.912Z,4.87
2018-08-20T20:09:31.959Z,9.00
2018-08-20T20:12:00.430Z,6.47
2018-08-20T20:14:33.208Z,5.57
2018-08-20T20:17:01.676Z,7.23
2018-08-20T20:19:30.120Z,10.13
2018-08-20T20:21:58.540Z,4.47
2018-08-20T20:24:27.190Z,5.03
2018-08-20T20:26:55.847Z,4.10
2018-08-20T20:29:24.369Z,6.50
2018-08-20T20:31:52.821Z,5.87
2018-08-20T20:34:21.281Z,8.87
2018-08-20T20:36:49.770Z,7.60
2018-08-20T20:39:18.592Z,9.07
2018-08-20T20:41:47.124Z,3.47
2018-08-20T20:44:15.611Z,7.97
2018-08-20T20:46:44.099Z,4.40
2018-08-20T20:49:12.755Z,6.50
2018-08-20T20:51:41.203Z,5.50
2018-08-20T20:54:09.647Z,4.83
2018-08-20T20:56:38.112Z,5.30
2018-08-20T20:59:06.629Z,5.33
2018-08-20T21:01:35.227Z,4.63
2018-08-20T21:04:04.565Z,6.40
2018-08-20T21:06:36.123Z,7.13
2018-08-20T21:09:06.288Z,5.47
2018-08-20T21:11:35.220Z,5.27
2018-08-20T21:14:03.782Z,4.97
2018-08-20T21:16:32.667Z,3.33
2018-08-20T21:19:02.539Z,5.77
2018-08-20T21:21:32.613Z,6.43
2018-08-20T21:24:01.187Z,5.67
2018-08-20T21:26:29.565Z,3.83
2018-08-20T21:28:58.272Z,5.80
2018-08-20T21:31:28.110Z,4.63
2018-08-20T21:33:57.891Z,4.33
2018-08-20T21:36:26.510Z,3.93
2018-08-20T21:38:54.897Z,4.30
2018-08-20T21:41:25.082Z,6.40
2018-08-20T21:43:54.046Z,7.97
2018-08-20T21:46:22.507Z,4.53
2018-08-20T21:48:51.363Z,7.20
2018-08-20T21:51:27.813Z,6.13
2018-08-20T21:53:56.260Z,6.53
2018-08-20T21:56:25.146Z,4.80
2018-08-20T21:58:53.650Z,6.67
2018-08-20T22:01:22.138Z,3.87
2018-08-20T22:03:50.495Z,4.33
2018-08-20T22:06:19.058Z,8.07
2018-08-20T22:08:47.454Z,8.73
2018-08-20T22:11:16.395Z,6.13
2018-08-20T22:13:44.993Z,2.60
2018-08-20T22:16:16.747Z,3.40
2018-08-20T22:18:46.553Z,5.30
2018-08-20T22:21:20.064Z,8.47
2018-08-20T22:23:48.646Z,3.07
2018-08-20T22:26:18.779Z,5.43
2018-08-20T22:28:48.927Z,4.77
2018-08-20T22:31:17.356Z,4.87
2018-08-20T22:33:46.416Z,4.80
2018-08-20T22:36:14.979Z,4.37
2018-08-20T22:38:47.414Z,5.97
2018-08-20T22:41:16.584Z,4.47
2018-08-20T22:43:45.047Z,7.87
2018-08-20T22:46:13.668Z,5.60
2018-08-20T22:48:42.300Z,4.70
2018-08-20T22:51:15.879Z,5.70
2018-08-20T22:53:44.935Z,7.17
2018-08-20T22:56:19.875Z,4.50
2018-08-20T22:58:48.339Z,3.90
2018-08-20T23:01:16.775Z,4.23
2018-08-20T23:03:45.290Z,5.40
2018-08-20T23:06:13.806Z,4.57
2018-08-20T23:08:42.199Z,5.40
2018-08-20T23:11:10.636Z,3.90
2018-08-20T23:13:39.141Z,6.77
2018-08-20T23:16:07.658Z,4.20
2018-08-20T23:18:36.152Z,4.60
2018-08-20T23:21:04.688Z,6.50
2018-08-20T23:23:34.831Z,6.47
2018-08-20T23:26:08.607Z,5.17
2018-08-20T23:28:38.624Z,6.63
2018-08-20T23:31:07.115Z,3.43
2018-08-20T23:33:37.735Z,5.30
2018-08-20T23:36:06.315Z,4.60
2018-08-20T23:38:34.844Z,6.13
2018-08-20T23:41:03.327Z,6.47
2018-08-20T23:43:31.736Z,5.13
2018-08-20T23:46:00.582Z,3.50
2018-08-20T23:48:29.063Z,6.23
2018-08-20T23:51:02.888Z,4.50
2018-08-20T23:53:31.581Z,3.97
2018-08-20T23:56:00.150Z,6.20
2018-08-20T23:58:28.635Z,3.83
